Time;durP1;ratioP1;P1;durP2;ratioP2;P2;SDS_P1;SDS_P2;PMS_P1;PMS_P2;Temp;Humidity;BMP_temperature;BMP_pressure;BME280_temperature;BME280_humidity;BME280_pressure;Samples;Min_cycle;Max_cycle;Signal;HPM_P1;HPM_P2
2022/08/23 00:02:18;;;;;;;8.88;1.67;;;;;;;24.86;52.27;100201.94;4993040;28;20050;-63
2022/08/23 00:05:04;;;;;;;8.45;1.75;;;;;;;24.56;51.74;100194.50;4992226;28;20440;-62
2022/08/23 00:07:49;;;;;;;11.98;1.52;;;;;;;24.33;51.78;100190.94;4992585;28;20041;-63
2022/08/23 00:10:34;;;;;;;4.18;1.10;;;;;;;24.22;52.11;100194.69;4993199;28;20057;-63
2022/08/23 00:13:18;;;;;;;2.63;1.45;;;;;;;24.21;51.77;100192.31;4992829;28;20410;-63
2022/08/23 00:16:03;;;;;;;3.88;1.20;;;;;;;24.03;51.81;100186.19;4992311;28;20057;-63
2022/08/23 00:18:48;;;;;;;4.07;1.38;;;;;;;23.92;51.96;100191.13;4994161;28;20041;-63
2022/08/23 00:21:36;;;;;;;2.45;1.10;;;;;;;23.98;52.32;100186.66;4992729;28;20053;-63
2022/08/23 00:24:22;;;;;;;3.28;1.50;;;;;;;23.87;51.90;100187.59;4991846;28;20057;-63
2022/08/23 00:27:14;;;;;;;6.63;1.38;;;;;;;24.04;52.27;100188.56;4973182;28;20410;-62
2022/08/23 00:29:59;;;;;;;4.00;1.33;;;;;;;23.93;51.44;100181.56;4973179;28;20053;-63
2022/08/23 00:32:45;;;;;;;5.20;1.40;;;;;;;23.90;51.62;100187.97;4972795;28;20062;-64
2022/08/23 00:35:29;;;;;;;4.85;1.75;;;;;;;24.02;52.27;100179.06;4976012;28;20048;-63
2022/08/23 00:38:14;;;;;;;5.25;1.48;;;;;;;23.48;53.42;100190.09;4990185;28;20053;-63
2022/08/23 00:40:59;;;;;;;2.42;1.05;;;;;;;23.67;54.56;100188.69;4972151;28;20156;-62
2022/08/23 00:50:26;;;;;;;12.63;1.35;;;;;;;24.47;52.61;100196.25;5003104;28;20056;-63
2022/08/23 00:53:16;;;;;;;10.15;1.23;;;;;;;24.76;51.78;100191.78;4989185;28;20122;-64
2022/08/23 00:56:04;;;;;;;5.07;1.10;;;;;;;24.87;51.78;100195.19;4989125;28;20077;-61
2022/08/23 00:58:50;;;;;;;11.65;1.63;;;;;;;25.00;51.83;100192.56;4989712;28;20045;-61
2022/08/23 01:01:35;;;;;;;2.45;1.10;;;;;;;24.67;49.40;100186.78;4986461;28;20049;-63
2022/08/23 01:04:20;;;;;;;7.22;1.50;;;;;;;24.16;50.14;100185.19;4998944;28;20050;-63
2022/08/23 01:07:21;;;;;;;1.23;0.77;;;;;;;23.97;50.56;100194.22;4995294;28;20155;-64
2022/08/23 01:10:16;;;;;;;7.90;1.40;;;;;;;23.53;51.93;100186.09;5000309;28;20058;-63
2022/08/23 01:13:20;;;;;;;2.05;0.98;;;;;;;23.15;53.55;100188.91;5007599;28;20520;-62
2022/08/23 01:16:12;;;;;;;2.90;1.05;;;;;;;23.11;53.62;100199.22;5005063;28;20053;-64
2022/08/23 01:19:01;;;;;;;4.15;1.75;;;;;;;23.27;52.97;100191.13;4987401;28;20543;-61
2022/08/23 01:21:56;;;;;;;3.58;1.20;;;;;;;23.55;52.41;100198.34;4999912;28;20041;-62
2022/08/23 01:24:43;;;;;;;2.13;1.35;;;;;;;23.49;52.62;100197.25;4997118;28;20049;-63
2022/08/23 01:27:28;;;;;;;8.18;1.08;;;;;;;23.80;52.36;100198.81;5005151;28;20061;-64
2022/08/23 01:30:18;;;;;;;2.63;0.90;;;;;;;24.11;53.22;100198.78;4994560;28;20049;-62
2022/08/23 01:33:06;;;;;;;2.60;0.88;;;;;;;24.27;52.37;100191.41;4993585;28;20122;-65
2022/08/23 01:35:55;;;;;;;4.25;1.00;;;;;;;24.62;51.91;100198.38;4972335;28;20050;-64
2022/08/23 01:38:41;;;;;;;2.53;0.90;;;;;;;24.76;51.56;100200.13;4986605;28;20053;-64
2022/08/23 01:41:25;;;;;;;2.15;0.70;;;;;;;24.88;51.13;100201.53;4992065;28;20067;-64
2022/08/23 01:44:10;;;;;;;2.05;1.45;;;;;;;24.75;49.41;100200.53;4981239;28;20061;-64
2022/08/23 01:46:55;;;;;;;2.70;1.10;;;;;;;24.70;51.25;100202.59;4991586;28;20053;-64
2022/08/23 01:49:41;;;;;;;1.55;1.02;;;;;;;24.78;50.70;100200.50;5003058;28;20041;-62
2022/08/23 01:52:26;;;;;;;2.63;1.20;;;;;;;24.75;50.96;100206.09;5009700;28;20153;-63
2022/08/23 01:55:12;;;;;;;2.38;1.15;;;;;;;24.78;50.35;100205.28;5007002;28;20045;-62
2022/08/23 01:57:59;;;;;;;3.60;0.90;;;;;;;24.84;50.49;100209.16;4999767;28;20072;-64
2022/08/23 02:00:44;;;;;;;2.22;0.75;;;;;;;24.81;50.60;100201.63;4995336;28;20533;-63
2022/08/23 02:03:32;;;;;;;4.07;0.80;;;;;;;24.84;50.25;100207.13;4999184;28;20041;-64
2022/08/23 02:06:17;;;;;;;2.90;1.40;;;;;;;24.76;50.34;100210.47;5002304;28;20048;-63
2022/08/23 02:09:04;;;;;;;1.67;1.00;;;;;;;24.85;50.55;100211.47;4993400;28;20053;-63
2022/08/23 02:11:54;;;;;;;13.00;1.25;;;;;;;24.87;50.45;100216.63;4995465;28;20045;-63
2022/08/23 02:14:41;;;;;;;4.95;1.20;;;;;;;24.91;50.19;100218.16;4993518;28;20060;-64
2022/08/23 02:17:33;;;;;;;5.20;1.10;;;;;;;24.75;49.79;100211.66;4975967;28;20057;-64
2022/08/23 02:20:18;;;;;;;3.90;1.20;;;;;;;24.41;47.97;100215.41;4990364;28;20050;-64
2022/08/23 02:23:03;;;;;;;4.38;1.45;;;;;;;24.41;49.66;100222.97;4995219;28;20042;-64
2022/08/23 02:25:50;;;;;;;3.78;0.98;;;;;;;24.69;50.10;100220.50;4995416;28;20053;-63
2022/08/23 02:28:37;;;;;;;5.93;1.20;;;;;;;24.52;48.54;100218.81;4995978;28;20049;-63
2022/08/23 02:31:21;;;;;;;3.67;0.70;;;;;;;24.61;50.11;100219.06;5012517;28;20045;-63
2022/08/23 02:34:06;;;;;;;1.63;0.75;;;;;;;24.69;49.89;100217.72;5002871;28;20074;-63
2022/08/23 02:36:52;;;;;;;3.47;1.20;;;;;;;24.67;49.66;100217.38;5017216;28;20040;-63
2022/08/23 02:39:37;;;;;;;7.82;1.05;;;;;;;24.77;49.40;100220.38;4999310;28;20049;-63
2022/08/23 02:42:22;;;;;;;2.53;0.68;;;;;;;24.78;49.63;100219.97;5013682;28;20049;-63
2022/08/23 02:45:08;;;;;;;3.50;1.50;;;;;;;24.63;48.14;100219.44;5014178;28;20057;-61
2022/08/23 02:47:57;;;;;;;3.50;1.10;;;;;;;24.21;48.35;100225.66;5000890;28;20045;-62
2022/08/23 02:50:51;;;;;;;3.90;1.13;;;;;;;23.88;47.29;100236.38;4993146;28;20056;-63
2022/08/23 02:53:37;;;;;;;8.00;1.17;;;;;;;23.91;51.40;100234.00;5000398;28;20060;-63
2022/08/23 02:56:25;;;;;;;6.95;1.15;;;;;;;24.57;50.08;100234.22;5006858;28;20057;-63
2022/08/23 02:59:10;;;;;;;3.10;0.90;;;;;;;24.80;49.25;100236.22;4994095;28;20056;-61
2022/08/23 03:01:56;;;;;;;4.65;1.48;;;;;;;24.92;49.13;100235.66;5006255;28;20041;-63
2022/08/23 03:04:46;;;;;;;13.98;2.05;;;;;;;25.10;48.75;100241.66;5012835;28;20104;-62
2022/08/23 03:07:31;;;;;;;7.90;1.23;;;;;;;25.18;48.35;100232.00;4995737;28;20041;-61
2022/08/23 03:10:16;;;;;;;1.38;0.80;;;;;;;25.07;48.10;100232.19;4999679;28;20065;-62
2022/08/23 03:13:06;;;;;;;1.60;0.90;;;;;;;25.01;48.31;100233.09;4999511;28;20044;-62
2022/08/23 03:15:51;;;;;;;4.82;1.20;;;;;;;25.01;48.03;100227.53;5000220;28;20044;-64
2022/08/23 03:18:37;;;;;;;6.28;1.02;;;;;;;25.03;48.06;100230.69;4999008;28;20065;-62
2022/08/23 03:21:21;;;;;;;8.93;2.15;;;;;;;24.98;47.82;100225.59;4995879;28;20532;-60
2022/08/23 03:24:06;;;;;;;1.10;0.93;;;;;;;25.00;47.51;100234.31;5012861;28;20512;-62
2022/08/23 03:26:52;;;;;;;2.10;1.05;;;;;;;24.97;47.59;100232.38;4995995;28;20053;-62
2022/08/23 03:29:37;;;;;;;1.58;0.55;;;;;;;24.95;47.54;100241.13;4999476;28;20420;-62
2022/08/23 03:32:23;;;;;;;1.33;0.98;;;;;;;24.97;47.28;100237.94;4997527;28;20049;-62
2022/08/23 03:35:08;;;;;;;1.17;0.80;;;;;;;24.93;47.27;100240.78;5002325;28;20041;-62
2022/08/23 03:37:53;;;;;;;2.83;0.73;;;;;;;24.95;47.41;100235.56;4988453;28;20052;-62
2022/08/23 03:40:39;;;;;;;1.52;0.88;;;;;;;24.96;47.17;100241.94;4999356;28;20054;-61
2022/08/23 03:43:24;;;;;;;4.30;0.82;;;;;;;24.95;47.35;100240.34;5011092;28;20045;-62
2022/08/23 03:46:21;;;;;;;2.80;0.90;;;;;;;24.94;47.48;100239.56;5012919;28;20057;-63
2022/08/23 03:49:07;;;;;;;3.40;1.08;;;;;;;24.96;47.40;100244.72;5012758;28;20052;-62
2022/08/23 03:52:10;;;;;;;2.55;0.70;;;;;;;24.96;47.22;100239.16;4961362;28;20127;-63
2022/08/23 03:54:54;;;;;;;5.03;0.63;;;;;;;24.94;47.33;100239.56;4972801;28;20101;-62
2022/08/23 03:57:40;;;;;;;3.72;1.00;;;;;;;24.96;47.25;100237.16;4989758;28;20053;-60
2022/08/23 04:00:24;;;;;;;2.10;1.05;;;;;;;24.92;47.25;100244.00;4997962;28;20044;-62
2022/08/23 04:03:11;;;;;;;1.13;0.80;;;;;;;24.92;47.28;100244.00;5007580;28;20060;-62
2022/08/23 04:06:14;;;;;;;4.82;0.95;;;;;;;24.87;47.17;100244.44;5009706;28;20045;-60
2022/08/23 04:08:59;;;;;;;2.97;0.88;;;;;;;24.86;47.29;100254.00;4993184;28;20425;-60
2022/08/23 04:11:44;;;;;;;1.58;0.73;;;;;;;24.88;47.20;100259.97;5000682;28;20054;-62
2022/08/23 04:14:30;;;;;;;4.07;1.05;;;;;;;24.86;47.02;100267.91;4984374;28;20053;-63
2022/08/23 04:17:16;;;;;;;2.30;0.95;;;;;;;24.87;47.13;100266.69;4998843;28;20045;-60
2022/08/23 04:20:04;;;;;;;2.58;1.30;;;;;;;24.87;46.95;100270.31;5014577;28;20061;-62
2022/08/23 04:22:53;;;;;;;2.78;1.00;;;;;;;24.86;47.08;100277.03;4997964;28;20033;-61
2022/08/23 04:25:39;;;;;;;2.20;1.05;;;;;;;24.82;47.10;100287.44;4990940;28;20049;-63
2022/08/23 04:28:24;;;;;;;3.83;0.75;;;;;;;24.83;47.16;100277.91;5011960;28;20041;-60
2022/08/23 04:31:09;;;;;;;3.40;0.90;;;;;;;24.83;47.00;100277.13;5010697;28;20505;-62
2022/08/23 04:33:56;;;;;;;3.22;1.27;;;;;;;24.82;47.13;100279.09;4992161;28;20055;-61
2022/08/23 04:36:42;;;;;;;2.58;0.60;;;;;;;24.84;46.88;100284.25;4982985;28;20045;-61
2022/08/23 04:39:27;;;;;;;1.65;0.80;;;;;;;24.84;47.12;100281.47;4992509;28;20134;-61
2022/08/23 04:42:18;;;;;;;2.83;0.90;;;;;;;24.83;47.18;100285.47;4994701;28;20049;-62
2022/08/23 04:45:05;;;;;;;3.58;0.70;;;;;;;24.82;47.16;100278.31;5007912;28;20044;-63
2022/08/23 04:47:52;;;;;;;10.70;1.10;;;;;;;24.80;46.99;100283.50;5015770;28;20044;-62
2022/08/23 04:50:37;;;;;;;4.63;1.27;;;;;;;24.78;47.07;100292.28;5007734;28;20053;-61
2022/08/23 04:53:35;;;;;;;2.20;0.90;;;;;;;24.81;47.20;100297.00;5003656;28;20052;-62
2022/08/23 04:56:42;;;;;;;8.70;1.20;;;;;;;24.81;46.84;100299.78;5020133;23;20069;31
2022/08/23 04:59:28;;;;;;;1.73;0.90;;;;;;;24.80;47.21;100297.41;4960617;28;20058;-77
2022/08/23 05:02:13;;;;;;;8.75;1.70;;;;;;;24.79;47.11;100307.75;4970429;28;20064;-78
2022/08/23 05:04:59;;;;;;;7.03;1.08;;;;;;;24.77;47.24;100301.84;4975607;28;20050;-78
2022/08/23 05:07:44;;;;;;;3.78;1.30;;;;;;;24.77;47.29;100309.38;4983668;28;20050;-78
2022/08/23 05:10:29;;;;;;;1.23;0.93;;;;;;;24.80;47.55;100316.88;4976154;28;20053;-78
2022/08/23 05:13:14;;;;;;;7.22;1.20;;;;;;;24.79;47.02;100312.56;4986286;28;20054;-78
2022/08/23 05:15:59;;;;;;;1.73;0.80;;;;;;;24.81;47.13;100322.03;4972009;28;20062;-77
2022/08/23 05:18:48;;;;;;;3.08;1.02;;;;;;;24.83;46.89;100321.63;4956298;29;20050;-78
2022/08/23 05:21:33;;;;;;;9.88;0.95;;;;;;;24.81;47.14;100327.59;4970779;28;20054;-78
2022/08/23 05:24:19;;;;;;;2.63;1.02;;;;;;;24.81;47.08;100324.03;4967376;28;20050;-78
2022/08/23 05:27:05;;;;;;;4.43;1.15;;;;;;;24.80;47.14;100331.56;4943757;29;20046;-78
2022/08/23 05:29:53;;;;;;;7.40;1.35;;;;;;;24.82;47.48;100331.16;4969351;28;20404;-77
2022/08/23 05:32:38;;;;;;;2.55;1.42;;;;;;;24.85;47.70;100327.53;4977939;28;20726;-78
2022/08/23 05:35:25;;;;;;;4.22;1.48;;;;;;;24.87;47.53;100330.69;4964973;28;20054;-78
2022/08/23 05:38:10;;;;;;;4.13;1.23;;;;;;;24.87;47.64;100339.84;4948674;28;20062;-78
2022/08/23 05:40:57;;;;;;;11.02;2.10;;;;;;;24.88;47.60;100341.44;4947706;28;20044;-78
2022/08/23 05:43:42;;;;;;;2.83;1.15;;;;;;;24.91;47.86;100350.91;4961738;28;20057;-78
2022/08/23 05:46:28;;;;;;;3.78;1.05;;;;;;;24.94;47.92;100347.31;4976045;28;20408;-77
2022/08/23 05:49:30;;;;;;;9.52;2.72;;;;;;;24.98;48.04;100348.03;4954083;28;20058;-78
2022/08/23 05:52:16;;;;;;;3.40;1.10;;;;;;;25.01;48.10;100342.41;4963319;28;20046;-78
2022/08/23 05:55:03;;;;;;;5.72;1.10;;;;;;;25.08;48.04;100349.84;4973987;28;20062;-78
2022/08/23 05:57:56;;;;;;;2.13;1.17;;;;;;;25.10;48.24;100344.63;4970916;28;20041;-77
2022/08/23 06:00:41;;;;;;;3.83;0.93;;;;;;;25.07;48.10;100348.28;4960585;28;20050;-78
2022/08/23 06:03:27;;;;;;;3.63;1.60;;;;;;;25.09;48.33;100362.56;4966963;28;20526;-78
2022/08/23 06:06:14;;;;;;;4.60;1.15;;;;;;;25.05;48.68;100367.38;4988064;28;20050;-78
2022/08/23 06:09:02;;;;;;;3.85;1.10;;;;;;;25.01;48.62;100359.09;4972970;28;20058;-78
2022/08/23 06:11:47;;;;;;;5.68;1.35;;;;;;;25.00;48.94;100365.06;4954864;29;20404;-78
2022/08/23 06:14:32;;;;;;;2.55;1.20;;;;;;;25.04;48.92;100363.03;4954869;29;20050;-78
2022/08/23 06:17:17;;;;;;;5.95;1.30;;;;;;;25.08;49.20;100364.56;4943716;29;20058;-78
2022/08/23 06:20:02;;;;;;;5.57;1.75;;;;;;;25.12;49.33;100362.50;4954311;29;20539;-77
2022/08/23 06:22:54;;;;;;;12.82;1.60;;;;;;;25.16;49.43;100362.44;4954435;29;20042;-77
2022/08/23 06:25:39;;;;;;;7.80;1.30;;;;;;;25.25;49.52;100367.44;4954226;29;20069;-77
2022/08/23 06:28:31;;;;;;;7.07;1.77;;;;;;;25.32;49.68;100361.75;4953973;29;20046;-77
2022/08/23 06:34:32;;;;;;;3.80;0.90;;;;;;;25.52;51.20;100374.53;4954145;29;20038;-77
2022/08/23 06:37:26;;;;;;;4.43;1.15;;;;;;;25.55;50.67;100364.56;4958837;28;20058;-77
2022/08/23 06:40:37;;;;;;;4.90;0.75;;;;;;;25.72;50.42;100371.81;4958165;28;20413;-77
2022/08/23 06:43:41;;;;;;;5.40;1.88;;;;;;;25.75;50.34;100379.28;4963389;28;20123;-77
2022/08/23 06:46:48;;;;;;;4.20;0.95;;;;;;;25.80;50.19;100375.25;4964162;28;20537;-77
2022/08/23 06:49:34;;;;;;;3.40;1.80;;;;;;;25.88;50.54;100376.69;4970230;28;20058;-78
2022/08/23 06:52:19;;;;;;;7.72;1.38;;;;;;;26.00;50.14;100373.25;4981091;28;20049;-79
2022/08/23 06:55:17;;;;;;;6.68;0.98;;;;;;;26.07;49.95;100381.47;4977357;28;20069;-77
2022/08/23 06:58:27;;;;;;;1.15;0.80;;;;;;;26.02;50.15;100386.75;4977741;28;20420;-78
2022/08/23 07:01:46;;;;;;;6.90;0.82;;;;;;;26.24;49.72;100390.72;4958439;29;20058;-77
2022/08/23 07:04:59;;;;;;;5.22;1.00;;;;;;;26.08;49.97;100391.41;4962491;28;20397;-78
2022/08/23 07:08:07;;;;;;;0.93;0.57;;;;;;;26.20;49.48;100393.56;4971609;28;20054;-78
2022/08/23 07:10:51;;;;;;;1.42;0.80;;;;;;;26.23;49.05;100400.28;4957777;29;20510;-78
2022/08/23 07:13:36;;;;;;;1.90;0.70;;;;;;;26.35;49.23;100397.66;4958060;29;20122;-78
2022/08/23 07:16:20;;;;;;;;;;;;;;;26.36;49.06;100402.00;4958310;29;20058;-78
2022/08/23 07:19:05;;;;;;;1.70;0.80;;;;;;;26.28;49.24;100400.56;4973444;28;19926;-77
2022/08/23 07:21:50;;;;;;;2.80;1.17;;;;;;;26.41;49.10;100400.72;4969370;28;20054;-77
2022/08/23 07:24:34;;;;;;;;;;;;;;;26.50;49.04;100406.50;4954004;28;20511;-77
2022/08/23 07:27:20;;;;;;;2.20;1.02;;;;;;;26.53;48.96;100407.63;4967745;28;19918;-77
2022/08/23 07:30:14;;;;;;;6.55;1.20;;;;;;;26.51;48.92;100412.88;4955412;28;20050;-77
2022/08/23 07:32:59;;;;;;;3.30;0.80;;;;;;;26.59;48.58;100409.47;4940743;29;20421;-77
2022/08/23 07:35:48;;;;;;;3.30;0.80;;;;;;;26.77;48.54;100414.66;4954447;29;20515;-77
2022/08/23 07:38:34;;;;;;;2.47;0.70;;;;;;;26.68;48.46;100425.63;4948982;29;20416;-77
2022/08/23 07:41:19;;;;;;;2.60;1.00;;;;;;;26.72;48.50;100427.13;4947602;29;20291;-77
2022/08/23 07:44:08;;;;;;;4.00;0.80;;;;;;;26.78;48.14;100416.22;4952917;28;20054;-77
2022/08/23 07:46:53;;;;;;;1.48;0.50;;;;;;;26.73;48.54;100423.13;4959913;28;20538;-77
2022/08/23 07:49:38;;;;;;;8.85;0.90;;;;;;;26.82;48.15;100428.88;4974654;28;20042;-77
2022/08/23 07:52:23;;;;;;;1.80;1.15;;;;;;;26.68;48.30;100425.63;4962614;28;20059;-77
2022/08/23 07:55:08;;;;;;;6.25;0.68;;;;;;;26.75;48.48;100422.69;4935625;29;20039;-77
2022/08/23 07:58:21;;;;;;;2.55;0.70;;;;;;;26.81;48.84;100416.16;4948810;28;20421;-80
2022/08/23 08:01:29;;;;;;;3.88;0.80;;;;;;;26.92;47.84;100429.13;4964422;28;20046;-77
2022/08/23 08:04:14;;;;;;;5.45;1.10;;;;;;;26.96;48.47;100438.19;4984559;28;20049;-77
2022/08/23 08:07:03;;;;;;;6.90;0.98;;;;;;;27.06;47.75;100435.16;4992009;28;20050;-77
2022/08/23 08:09:49;;;;;;;3.67;0.80;;;;;;;27.03;47.89;100430.44;4957414;28;20054;-77
2022/08/23 08:12:35;;;;;;;2.13;0.90;;;;;;;26.92;47.81;100434.72;4959699;28;20057;-77
2022/08/23 08:15:31;;;;;;;3.42;0.98;;;;;;;26.66;48.52;100436.44;4959753;28;20042;-77
2022/08/23 08:18:24;;;;;;;6.20;1.05;;;;;;;26.90;47.89;100434.34;4956932;28;20070;-77
2022/08/23 08:21:28;;;;;;;5.38;1.33;;;;;;;27.04;47.78;100436.81;4952579;29;20078;-77
2022/08/23 08:24:31;;;;;;;2.88;1.00;;;;;;;27.05;48.26;100449.53;4953421;29;20046;-77
2022/08/23 08:27:20;;;;;;;6.18;1.15;;;;;;;27.30;47.16;100446.94;4952213;29;20050;-77
2022/08/23 08:30:07;;;;;;;5.03;1.10;;;;;;;27.45;46.46;100450.97;4943272;28;20435;-77
2022/08/23 08:32:52;;;;;;;10.07;1.10;;;;;;;27.28;46.86;100457.75;4954308;29;20057;-77
2022/08/23 08:35:38;;;;;;;7.55;0.82;;;;;;;27.23;46.71;100456.28;4947633;29;20050;-77
2022/08/23 08:38:24;;;;;;;4.93;1.13;;;;;;;27.30;47.04;100460.13;4940904;29;20066;-77
2022/08/23 08:41:18;;;;;;;1.90;0.70;;;;;;;27.59;44.99;100463.81;4950328;29;20400;-77
2022/08/23 08:44:25;;;;;;;5.17;1.10;;;;;;;27.52;46.45;100464.00;4948347;28;20073;-77
2022/08/23 08:47:36;;;;;;;5.70;0.98;;;;;;;27.36;46.16;100470.34;4951057;28;20050;-77
2022/08/23 08:50:43;;;;;;;2.55;1.25;;;;;;;27.86;45.17;100475.50;4952700;29;20112;-77
2022/08/23 08:53:36;;;;;;;1.63;0.70;;;;;;;27.68;46.05;100458.41;4953831;29;20055;-77
2022/08/23 08:56:33;;;;;;;2.70;0.88;;;;;;;28.17;44.30;100477.91;4955204;28;20416;-77
2022/08/23 08:59:53;;;;;;;3.08;0.90;;;;;;;27.95;43.59;100472.06;4970604;28;20046;-77
2022/08/23 09:02:41;;;;;;;2.35;1.00;;;;;;;27.83;43.99;100472.81;4967125;28;20054;-77
2022/08/23 09:05:33;;;;;;;5.03;1.02;;;;;;;27.82;44.75;100469.22;4953738;29;20058;-77
2022/08/23 09:08:23;;;;;;;4.47;1.33;;;;;;;27.99;45.35;100467.94;4953822;29;20054;-77
2022/08/23 09:11:27;;;;;;;6.28;1.27;;;;;;;28.08;44.46;100470.91;4945361;29;20523;-77
2022/08/23 09:14:49;;;;;;;3.85;0.88;;;;;;;28.31;43.82;100469.13;4969772;28;20046;-77
2022/08/23 09:17:43;;;;;;;5.50;1.00;;;;;;;28.25;42.91;100468.09;4941346;29;20137;-77
2022/08/23 09:20:32;;;;;;;3.10;0.93;;;;;;;28.36;41.59;100468.56;4966068;28;20057;-77
2022/08/23 09:23:33;;;;;;;3.85;1.52;;;;;;;28.39;42.73;100474.06;4967768;28;20050;-77
2022/08/23 09:26:29;;;;;;;3.38;1.25;;;;;;;28.19;43.17;100469.88;4952620;29;20042;-77
2022/08/23 09:29:31;;;;;;;4.45;0.85;;;;;;;28.27;43.38;100472.03;4965290;28;20042;-78
2022/08/23 09:32:33;;;;;;;1.27;0.77;;;;;;;28.36;42.31;100480.56;4955439;29;20054;-78
2022/08/23 09:35:23;;;;;;;1.40;0.90;;;;;;;28.26;41.54;100476.03;4955967;28;20031;-78
2022/08/23 09:38:20;;;;;;;3.58;0.90;;;;;;;28.34;41.20;100482.25;4951851;28;20066;-77
2022/08/23 09:41:19;;;;;;;2.80;0.82;;;;;;;28.25;42.16;100477.25;4953125;29;20058;-77
2022/08/23 09:44:15;;;;;;;1.00;0.50;;;;;;;28.53;39.86;100484.06;4936040;29;20047;-77
2022/08/23 09:47:10;;;;;;;5.35;1.00;;;;;;;28.66;41.24;100486.91;4951715;29;20054;-78
2022/08/23 09:50:15;;;;;;;3.65;1.05;;;;;;;28.57;41.83;100481.97;4955877;29;20066;-78
2022/08/23 09:53:09;;;;;;;2.58;1.40;;;;;;;28.76;40.63;100483.03;4954153;29;20050;-78
2022/08/23 09:55:57;;;;;;;4.88;1.85;;;;;;;28.43;41.46;100496.34;4954224;29;20054;-77
2022/08/23 09:58:45;;;;;;;1.92;1.08;;;;;;;28.36;41.86;100485.34;4954131;29;20043;-77
2022/08/23 10:01:35;;;;;;;6.25;0.90;;;;;;;28.23;42.73;100493.72;4950051;29;20058;-78
2022/08/23 10:04:37;;;;;;;4.82;1.00;;;;;;;28.41;42.31;100494.00;4946128;29;20063;-79
2022/08/23 10:07:38;;;;;;;2.60;0.80;;;;;;;28.66;41.13;100478.50;4952785;29;20054;-79
2022/08/23 10:10:45;;;;;;;6.20;1.00;;;;;;;28.69;41.08;100475.63;4953033;29;20050;-79
2022/08/23 10:13:32;;;;;;;7.75;0.82;;;;;;;28.80;40.96;100481.69;4947784;29;20507;-79
2022/08/23 10:16:56;;;;;;;1.17;0.90;;;;;;;28.77;39.69;100477.00;4961439;28;20058;-79
2022/08/23 10:19:51;;;;;;;1.20;0.82;;;;;;;28.80;39.58;100472.53;4958911;28;20059;-78
2022/08/23 10:22:44;;;;;;;5.55;1.40;;;;;;;28.87;39.84;100477.91;4946135;29;20416;-78
2022/08/23 10:25:48;;;;;;;3.17;0.65;;;;;;;28.73;40.51;100481.91;4940177;29;20046;-80
2022/08/23 10:32:23;;;;;;;2.42;1.08;;;;;;;28.54;41.91;100485.66;4953731;29;20053;-77
2022/08/23 10:35:38;;;;;;;9.65;1.10;;;;;;;28.77;40.69;100485.38;4969002;28;20042;-77
2022/08/23 10:38:26;;;;;;;1.30;0.80;;;;;;;28.96;39.69;100489.22;4955821;29;20062;-78
2022/08/23 10:41:17;;;;;;;2.40;0.70;;;;;;;28.95;40.50;100484.06;4953368;29;20046;-77
2022/08/23 10:44:11;;;;;;;4.90;0.90;;;;;;;29.06;39.12;100490.09;4971566;28;20059;-76
2022/08/23 10:47:06;;;;;;;2.38;0.88;;;;;;;29.39;39.67;100488.69;4954371;29;20043;-76
2022/08/23 10:49:54;;;;;;;7.57;1.67;;;;;;;29.11;40.29;100481.16;4965535;28;20055;-76
2022/08/23 10:53:09;;;;;;;5.47;0.85;;;;;;;28.95;40.88;100482.06;4940047;28;20420;-76
2022/08/23 10:56:03;;;;;;;3.30;0.68;;;;;;;29.06;40.60;100482.50;4949333;29;20677;-76
2022/08/23 10:58:57;;;;;;;1.48;0.57;;;;;;;29.33;37.80;100485.69;5028084;23;20076;-59
2022/08/23 11:01:45;;;;;;;1.38;0.93;;;;;;;29.48;38.53;100488.00;5022971;28;20688;-60
2022/08/23 11:04:48;;;;;;;9.18;0.80;;;;;;;29.02;40.82;100486.66;5029565;28;20673;-60
2022/08/23 11:07:59;;;;;;;2.70;0.80;;;;;;;29.00;40.09;100480.72;5031974;28;20056;-59
2022/08/23 11:10:47;;;;;;;1.70;0.70;;;;;;;29.04;40.48;100482.19;5033988;28;20068;-60
2022/08/23 11:13:33;;;;;;;2.20;0.90;;;;;;;29.16;40.10;100478.59;5029197;28;20419;-60
2022/08/23 11:16:30;;;;;;;1.85;0.68;;;;;;;29.14;39.94;100483.06;5038529;28;20515;-59
2022/08/23 11:19:48;;;;;;;2.20;1.48;;;;;;;29.32;39.92;100480.50;5037396;28;20539;-59
2022/08/23 11:22:55;;;;;;;14.90;1.33;;;;;;;29.32;38.57;100484.09;5034758;28;20052;-60
2022/08/23 11:25:43;;;;;;;5.88;0.80;;;;;;;29.74;38.32;100487.53;5027454;28;20045;-61
2022/08/23 11:28:27;;;;;;;0.77;0.60;;;;;;;29.94;37.35;100478.06;5029344;28;20056;-60
2022/08/23 11:31:30;;;;;;;4.47;1.05;;;;;;;29.58;38.34;100479.25;5045486;28;20048;-59
2022/08/23 11:34:24;;;;;;;2.10;0.60;;;;;;;29.65;38.22;100481.03;5036325;28;20044;-59
2022/08/23 11:37:18;;;;;;;4.55;1.00;;;;;;;29.63;37.56;100487.09;5054001;28;20048;-60
2022/08/23 11:40:10;;;;;;;3.70;0.75;;;;;;;29.72;37.11;100487.19;5045049;28;20060;-60
2022/08/23 11:43:12;;;;;;;4.18;0.90;;;;;;;29.99;37.28;100477.50;5033528;28;20049;-60
2022/08/23 11:46:24;;;;;;;1.95;0.82;;;;;;;29.92;37.02;100494.59;5036919;28;20424;-60
2022/08/23 11:49:16;;;;;;;2.38;0.70;;;;;;;29.58;38.37;100493.25;5041707;28;20051;-59
2022/08/23 11:52:01;;;;;;;3.67;0.70;;;;;;;29.58;35.78;100496.06;5028197;28;20507;-61
2022/08/23 11:54:46;;;;;;;3.75;0.82;;;;;;;29.92;34.23;100486.94;5021748;28;20044;-60
2022/08/23 11:57:49;;;;;;;0.63;0.60;;;;;;;29.90;35.13;100478.19;5035077;28;20049;-60
2022/08/23 12:00:53;;;;;;;2.97;0.60;;;;;;;29.94;33.83;100476.06;5031615;28;20499;-59
2022/08/23 12:03:58;;;;;;;;;;;;;;;30.10;34.74;100483.50;5030520;28;20052;-60
2022/08/23 12:06:49;;;;;;;0.85;0.45;;;;;;;29.98;35.47;100478.72;5029023;28;19913;-60
2022/08/23 12:09:37;;;;;;;3.80;0.60;;;;;;;29.90;36.60;100480.22;5020888;28;20052;-60
2022/08/23 12:12:29;;;;;;;1.73;0.88;;;;;;;29.74;36.91;100481.91;5035765;28;20045;-60
2022/08/23 12:15:15;;;;;;;1.42;0.70;;;;;;;29.68;36.96;100477.31;5049887;28;20404;-60
2022/08/23 12:18:10;;;;;;;5.55;0.80;;;;;;;30.18;36.63;100482.00;5020952;28;20053;-59
2022/08/23 12:21:00;;;;;;;1.40;0.82;;;;;;;30.02;36.38;100482.97;5028480;28;20071;-60
2022/08/23 12:23:49;;;;;;;3.50;0.50;;;;;;;29.88;36.08;100482.66;5039444;28;20053;-60
2022/08/23 12:26:37;;;;;;;2.15;0.77;;;;;;;29.89;37.00;100476.63;5033796;28;20048;-59
2022/08/23 12:29:45;;;;;;;1.30;0.60;;;;;;;30.23;36.03;100481.44;5015477;28;20041;-60
2022/08/23 12:32:52;;;;;;;1.55;0.95;;;;;;;29.52;38.08;100478.25;5033697;28;20052;-60
2022/08/23 12:35:54;;;;;;;2.60;0.88;;;;;;;29.67;37.69;100487.75;5031307;28;20045;-59
2022/08/23 12:39:00;;;;;;;5.18;1.25;;;;;;;29.82;36.62;100485.25;5025682;28;20052;-60
2022/08/23 12:41:58;;;;;;;5.10;0.95;;;;;;;29.89;36.07;100493.44;5029582;28;20041;-61
2022/08/23 12:44:45;;;;;;;0.82;0.55;;;;;;;29.67;37.32;100482.16;5029002;28;20048;-59
2022/08/23 12:47:31;;;;;;;1.90;0.50;;;;;;;29.65;37.67;100486.66;5031688;28;20424;-59
2022/08/23 12:50:33;;;;;;;3.38;0.70;;;;;;;29.47;38.30;100478.81;5028877;28;20056;-59
2022/08/23 12:53:30;;;;;;;1.42;0.88;;;;;;;29.19;38.94;100476.91;5041839;28;20044;-60
2022/08/23 12:56:21;;;;;;;1.33;0.63;;;;;;;29.37;38.69;100471.53;5041472;28;20053;-61
2022/08/23 12:59:32;;;;;;;1.52;0.60;;;;;;;29.53;36.61;100465.81;5043039;28;20527;-60
2022/08/23 13:02:30;;;;;;;3.25;0.75;;;;;;;29.77;35.62;100469.78;5029166;28;20401;-58
2022/08/23 13:05:37;;;;;;;1.70;0.60;;;;;;;29.81;36.96;100469.69;5034682;28;20040;-61
2022/08/23 13:08:27;;;;;;;10.50;1.40;;;;;;;29.89;37.18;100467.41;5052909;28;20044;-61
2022/08/23 13:11:17;;;;;;;1.77;1.17;;;;;;;29.91;36.13;100470.56;5049183;28;20530;-60
2022/08/23 13:14:26;;;;;;;2.80;0.95;;;;;;;30.20;33.21;100470.34;5021708;28;20499;-59
2022/08/23 13:17:20;;;;;;;5.75;0.60;;;;;;;30.06;33.00;100466.81;5021875;28;20044;-60
2022/08/23 13:20:07;;;;;;;0.63;0.55;;;;;;;29.80;34.91;100462.50;5027667;28;20052;-60
2022/08/23 13:23:06;;;;;;;1.20;0.40;;;;;;;29.11;37.19;100453.16;5029861;28;20044;-60
2022/08/23 13:25:51;;;;;;;0.98;0.60;;;;;;;29.42;35.53;100447.78;5013686;28;20048;-60
2022/08/23 13:28:36;;;;;;;6.25;0.75;;;;;;;29.28;36.86;100455.38;5028768;28;20051;-60
2022/08/23 13:31:20;;;;;;;1.75;0.60;;;;;;;29.23;36.73;100449.56;5014450;28;20049;-60
2022/08/23 13:34:05;;;;;;;9.75;1.27;;;;;;;29.48;36.25;100445.97;5022516;28;20401;-60